createdAt,value
2018-05-27T00:00:43.121Z,17.50
2018-05-27T00:03:10.556Z,17.50
2018-05-27T00:05:38.807Z,17.50
2018-05-27T00:08:06.272Z,17.50
2018-05-27T00:10:33.724Z,17.50
2018-05-27T00:13:01.780Z,17.50
2018-05-27T00:15:29.237Z,17.40
2018-05-27T00:17:56.676Z,17.40
2018-05-27T00:20:24.121Z,17.50
2018-05-27T00:22:51.580Z,17.40
2018-05-27T00:25:19.024Z,17.40
2018-05-27T00:27:46.464Z,17.40
2018-05-27T00:30:14.677Z,17.40
2018-05-27T00:32:42.136Z,17.40
2018-05-27T00:35:09.597Z,17.30
2018-05-27T00:37:37.036Z,17.30
2018-05-27T00:40:04.475Z,17.30
2018-05-27T00:42:32.695Z,17.20
2018-05-27T00:45:00.151Z,17.20
2018-05-27T00:47:27.608Z,17.20
2018-05-27T00:49:55.098Z,17.20
2018-05-27T00:52:22.516Z,17.20
2018-05-27T00:54:50.005Z,17.20
2018-05-27T00:57:18.667Z,17.30
2018-05-27T00:59:46.129Z,17.30
2018-05-27T01:02:13.565Z,17.30
2018-05-27T01:04:41.026Z,17.30
2018-05-27T01:07:08.488Z,17.30
2018-05-27T01:09:35.939Z,17.20
2018-05-27T01:12:03.380Z,17.20
2018-05-27T01:14:30.854Z,17.20
2018-05-27T01:16:58.297Z,17.20
2018-05-27T01:19:25.752Z,17.20
2018-05-27T01:21:53.205Z,17.20
2018-05-27T01:24:20.669Z,17.10
2018-05-27T01:26:48.115Z,17.10
2018-05-27T01:29:15.561Z,17.10
2018-05-27T01:31:43.017Z,17.00
2018-05-27T01:34:11.238Z,17.00
2018-05-27T01:36:38.690Z,17.00
2018-05-27T01:39:06.132Z,17.00
2018-05-27T01:41:33.565Z,17.00
2018-05-27T01:44:01.802Z,17.00
2018-05-27T01:46:29.240Z,17.00
2018-05-27T01:48:56.678Z,17.00
2018-05-27T01:51:24.141Z,16.90
2018-05-27T01:53:51.592Z,16.80
2018-05-27T01:56:19.020Z,16.70
2018-05-27T01:58:47.235Z,16.70
2018-05-27T02:01:14.688Z,16.70
2018-05-27T02:03:42.713Z,16.60
2018-05-27T02:06:10.923Z,16.70
2018-05-27T02:08:38.362Z,16.70
2018-05-27T02:11:06.595Z,16.80
2018-05-27T02:13:34.050Z,16.70
2018-05-27T02:16:01.485Z,16.70
2018-05-27T02:18:28.936Z,16.70
2018-05-27T02:20:56.385Z,16.80
2018-05-27T02:23:23.829Z,16.80
2018-05-27T02:25:51.271Z,16.80
2018-05-27T02:28:19.504Z,16.80
2018-05-27T02:30:46.924Z,16.80
2018-05-27T02:33:14.377Z,16.70
2018-05-27T02:35:41.813Z,16.70
2018-05-27T02:38:10.080Z,16.70
2018-05-27T02:40:37.533Z,16.70
2018-05-27T02:43:04.953Z,16.70
2018-05-27T02:45:32.406Z,16.70
2018-05-27T02:47:59.836Z,16.70
2018-05-27T02:50:27.296Z,16.60
2018-05-27T02:52:54.903Z,16.60
2018-05-27T02:55:22.394Z,16.60
2018-05-27T02:57:50.588Z,16.60
2018-05-27T03:00:18.039Z,16.60
2018-05-27T03:02:46.265Z,16.60
2018-05-27T03:05:13.700Z,16.60
2018-05-27T03:07:41.160Z,16.50
2018-05-27T03:10:08.617Z,16.50
2018-05-27T03:12:36.068Z,16.50
2018-05-27T03:15:03.518Z,16.50
2018-05-27T03:17:30.983Z,16.50
2018-05-27T03:19:58.413Z,16.60
2018-05-27T03:22:25.876Z,16.60
2018-05-27T03:24:53.316Z,16.60
2018-05-27T03:27:21.537Z,16.60
2018-05-27T03:29:49.944Z,16.60
2018-05-27T03:32:17.413Z,16.50
2018-05-27T03:34:44.870Z,16.60
2018-05-27T03:37:12.304Z,16.60
2018-05-27T03:39:39.792Z,16.60
2018-05-27T03:42:07.995Z,16.50
2018-05-27T03:44:35.443Z,16.50
2018-05-27T03:47:03.659Z,16.50
2018-05-27T03:49:31.105Z,16.50
2018-05-27T03:51:58.548Z,16.50
2018-05-27T03:54:26.000Z,16.50
2018-05-27T03:56:53.459Z,16.50
2018-05-27T03:59:20.916Z,16.40
2018-05-27T04:01:48.369Z,16.40
2018-05-27T04:04:27.808Z,16.30
2018-05-27T04:07:07.261Z,16.30
2018-05-27T04:09:34.706Z,16.20
2018-05-27T04:12:02.180Z,16.20
2018-05-27T04:14:29.622Z,16.30
2018-05-27T04:16:57.080Z,16.40
2018-05-27T04:19:24.543Z,16.50
2018-05-27T04:21:51.986Z,16.30
2018-05-27T04:24:19.457Z,16.40
2018-05-27T04:26:46.890Z,16.40
2018-05-27T04:29:15.154Z,16.40
2018-05-27T04:31:42.588Z,16.40
2018-05-27T04:34:11.548Z,16.40
2018-05-27T04:36:38.981Z,16.40
2018-05-27T04:39:06.458Z,16.50
2018-05-27T04:41:33.919Z,16.50
2018-05-27T04:44:01.375Z,16.50
2018-05-27T04:46:28.837Z,16.50
2018-05-27T04:48:56.297Z,16.50
2018-05-27T04:51:23.733Z,16.50
2018-05-27T04:53:51.173Z,16.50
2018-05-27T04:56:19.422Z,16.70
2018-05-27T04:58:46.874Z,16.70
2018-05-27T05:01:14.322Z,16.70
2018-05-27T05:03:41.761Z,16.70
2018-05-27T05:06:09.225Z,16.70
2018-05-27T05:08:36.660Z,16.80
2018-05-27T05:11:04.097Z,16.80
2018-05-27T05:13:31.554Z,16.80
2018-05-27T05:15:59.768Z,16.80
2018-05-27T05:18:27.234Z,16.80
2018-05-27T05:20:54.685Z,16.80
2018-05-27T05:23:22.124Z,16.80
2018-05-27T05:25:49.580Z,16.90
2018-05-27T05:28:17.051Z,17.00
2018-05-27T05:30:44.491Z,17.10
2018-05-27T05:33:11.956Z,17.10
2018-05-27T05:35:39.422Z,17.20
2018-05-27T05:38:06.881Z,17.30
2018-05-27T05:40:34.349Z,17.40
2018-05-27T05:43:01.803Z,17.50
2018-05-27T05:45:29.261Z,17.60
2018-05-27T05:47:56.720Z,17.70
2018-05-27T05:50:24.164Z,17.80
2018-05-27T05:52:51.633Z,17.90
2018-05-27T05:55:19.072Z,18.00
2018-05-27T05:57:46.544Z,18.10
2018-05-27T06:00:13.992Z,18.20
2018-05-27T06:02:41.437Z,18.20
2018-05-27T06:05:08.901Z,18.30
2018-05-27T06:07:36.353Z,18.40
2018-05-27T06:10:03.792Z,18.50
2018-05-27T06:12:31.268Z,18.60
2018-05-27T06:14:58.698Z,18.80
2018-05-27T06:17:27.839Z,19.00
2018-05-27T06:19:55.267Z,19.00
2018-05-27T06:22:22.744Z,19.00
2018-05-27T06:24:50.174Z,19.10
2018-05-27T06:27:17.625Z,19.30
2018-05-27T06:29:45.873Z,19.70
2018-05-27T06:32:13.337Z,19.70
2018-05-27T06:34:40.784Z,19.90
2018-05-27T06:37:08.225Z,20.20
2018-05-27T06:39:35.701Z,20.40
2018-05-27T06:42:03.171Z,20.40
2018-05-27T06:44:30.593Z,20.50
2018-05-27T06:46:58.048Z,20.40
2018-05-27T06:49:25.520Z,20.40
2018-05-27T06:51:53.740Z,20.60
2018-05-27T06:54:21.185Z,20.60
2018-05-27T06:56:49.418Z,20.80
2018-05-27T06:59:16.875Z,20.80
2018-05-27T07:01:44.323Z,21.00
2018-05-27T07:04:11.812Z,21.00
2018-05-27T07:06:39.284Z,21.10
2018-05-27T07:09:07.511Z,21.30
2018-05-27T07:11:34.951Z,21.20
2018-05-27T07:14:02.409Z,21.30
2018-05-27T07:16:29.866Z,21.30
2018-05-27T07:18:57.332Z,21.30
2018-05-27T07:21:24.791Z,21.20
2018-05-27T07:23:52.253Z,21.30
2018-05-27T07:26:19.715Z,21.40
2018-05-27T07:28:47.169Z,21.40
2018-05-27T07:31:14.610Z,21.40
2018-05-27T07:33:42.082Z,21.50
2018-05-27T07:36:09.540Z,21.60
2018-05-27T07:38:37.007Z,21.70
2018-05-27T07:41:04.448Z,21.90
2018-05-27T07:43:32.664Z,22.20
2018-05-27T07:46:00.136Z,22.20
2018-05-27T07:48:28.336Z,22.50
2018-05-27T07:50:55.776Z,22.50
2018-05-27T07:53:24.014Z,22.50
2018-05-27T07:55:51.455Z,22.50
2018-05-27T07:58:18.965Z,22.60
2018-05-27T08:00:46.348Z,22.60
2018-05-27T08:03:13.813Z,22.70
2018-05-27T08:05:41.248Z,23.10
2018-05-27T08:08:08.700Z,23.20
2018-05-27T08:10:36.953Z,23.50
2018-05-27T08:13:04.377Z,23.50
2018-05-27T08:15:31.823Z,23.50
2018-05-27T08:17:59.268Z,23.50
2018-05-27T08:20:26.745Z,23.30
2018-05-27T08:22:54.196Z,23.30
2018-05-27T08:25:21.662Z,23.50
2018-05-27T08:27:49.118Z,23.40
2018-05-27T08:30:16.552Z,23.40
2018-05-27T08:32:44.026Z,23.50
2018-05-27T08:35:11.475Z,23.60
2018-05-27T08:37:38.922Z,23.70
2018-05-27T08:40:06.364Z,23.90
2018-05-27T08:42:34.572Z,24.00
2018-05-27T08:45:02.118Z,24.00
2018-05-27T08:47:29.549Z,23.90
2018-05-27T08:49:57.781Z,23.90
2018-05-27T08:52:25.215Z,23.90
2018-05-27T08:54:52.687Z,23.90
2018-05-27T08:57:20.127Z,24.00
2018-05-27T08:59:47.583Z,24.10
2018-05-27T09:02:15.022Z,24.00
2018-05-27T09:04:42.472Z,24.00
2018-05-27T09:07:10.680Z,24.00
2018-05-27T09:09:38.148Z,23.90
2018-05-27T09:12:05.578Z,23.90
2018-05-27T09:14:33.276Z,23.90
2018-05-27T09:17:00.703Z,24.00
2018-05-27T09:19:28.172Z,23.90
2018-05-27T09:21:55.627Z,24.00
2018-05-27T09:24:23.060Z,23.90
2018-05-27T09:26:50.517Z,24.00
2018-05-27T09:29:17.953Z,24.00
2018-05-27T09:31:46.159Z,24.00
2018-05-27T09:34:13.631Z,24.00
2018-05-27T09:36:41.128Z,24.00
2018-05-27T09:39:08.599Z,24.10
2018-05-27T09:41:36.816Z,24.40
2018-05-27T09:44:04.256Z,24.40
2018-05-27T09:46:31.687Z,24.50
2018-05-27T09:48:59.923Z,24.70
2018-05-27T09:51:27.390Z,24.70
2018-05-27T09:53:55.568Z,24.90
2018-05-27T09:56:23.036Z,24.90
2018-05-27T09:58:50.474Z,25.00
2018-05-27T10:01:17.933Z,25.20
2018-05-27T10:03:45.375Z,25.40
2018-05-27T10:06:12.817Z,25.30
2018-05-27T10:08:40.291Z,25.40
2018-05-27T10:11:07.759Z,25.50
2018-05-27T10:13:35.212Z,25.60
2018-05-27T10:16:02.652Z,25.80
2018-05-27T10:18:30.116Z,25.80
2018-05-27T10:20:57.596Z,26.00
2018-05-27T10:23:25.066Z,26.10
2018-05-27T10:25:52.543Z,26.20
2018-05-27T10:28:19.940Z,26.30
2018-05-27T10:30:47.397Z,26.50
2018-05-27T10:33:14.855Z,26.70
2018-05-27T10:35:42.313Z,26.70
2018-05-27T10:38:09.759Z,26.60
2018-05-27T10:40:37.223Z,26.50
2018-05-27T10:43:04.670Z,26.70
2018-05-27T10:45:32.169Z,26.90
2018-05-27T10:47:59.614Z,26.60
2018-05-27T10:50:27.107Z,26.50
2018-05-27T10:52:55.335Z,26.00
2018-05-27T10:55:22.792Z,26.00
2018-05-27T10:57:50.237Z,26.00
2018-05-27T11:00:17.723Z,25.90
2018-05-27T11:02:45.217Z,25.90
2018-05-27T11:05:12.669Z,26.00
2018-05-27T11:07:40.129Z,26.00
2018-05-27T11:10:08.347Z,26.00
2018-05-27T11:12:35.844Z,26.00
2018-05-27T11:15:03.304Z,25.90
2018-05-27T11:17:30.770Z,25.90
2018-05-27T11:19:58.224Z,25.80
2018-05-27T11:22:25.704Z,25.80
2018-05-27T11:24:53.905Z,25.70
2018-05-27T11:27:21.352Z,25.70
2018-05-27T11:29:48.802Z,25.60
2018-05-27T11:32:16.305Z,25.60
2018-05-27T11:34:43.773Z,25.50
2018-05-27T11:37:11.232Z,25.40
2018-05-27T11:39:38.672Z,25.30
2018-05-27T11:42:06.135Z,25.30
2018-05-27T11:44:33.583Z,25.20
2018-05-27T11:47:01.039Z,25.20
2018-05-27T11:49:28.513Z,25.10
2018-05-27T11:51:55.985Z,25.10
2018-05-27T11:54:23.408Z,25.10
2018-05-27T11:56:50.855Z,25.10
2018-05-27T11:59:18.330Z,25.20
2018-05-27T12:01:46.798Z,25.20
2018-05-27T12:04:14.261Z,25.30
2018-05-27T12:06:41.706Z,25.20
2018-05-27T12:09:09.246Z,25.30
2018-05-27T12:11:36.686Z,25.20
2018-05-27T12:14:04.912Z,24.90
2018-05-27T12:16:32.353Z,24.80
2018-05-27T12:18:59.811Z,24.80
2018-05-27T12:21:27.282Z,24.60
2018-05-27T12:23:55.529Z,24.40
2018-05-27T12:26:23.008Z,24.40
2018-05-27T12:28:50.460Z,24.20
2018-05-27T12:31:17.916Z,24.20
2018-05-27T12:33:45.388Z,24.00
2018-05-27T12:36:12.849Z,23.90
2018-05-27T12:38:40.309Z,23.80
2018-05-27T12:41:07.772Z,23.60
2018-05-27T12:43:35.209Z,23.60
2018-05-27T12:46:03.763Z,23.50
2018-05-27T12:48:31.969Z,23.40
2018-05-27T12:50:59.442Z,23.40
2018-05-27T12:53:26.888Z,23.30
2018-05-27T12:55:54.336Z,23.20
2018-05-27T12:58:21.814Z,23.10
2018-05-27T13:00:49.256Z,23.10
2018-05-27T13:03:16.701Z,23.00
2018-05-27T13:05:44.157Z,23.00
2018-05-27T13:08:12.648Z,22.80
2018-05-27T13:10:40.100Z,22.80
2018-05-27T13:13:07.555Z,22.70
2018-05-27T13:15:35.000Z,22.60
2018-05-27T13:18:03.243Z,22.50
2018-05-27T13:20:30.689Z,22.50
2018-05-27T13:22:58.127Z,22.50
2018-05-27T13:25:25.646Z,22.40
2018-05-27T13:27:53.871Z,22.50
2018-05-27T13:30:22.621Z,22.50
2018-05-27T13:32:50.072Z,22.50
2018-05-27T13:35:17.520Z,22.50
2018-05-27T13:37:44.974Z,22.50
2018-05-27T13:40:13.216Z,22.40
2018-05-27T13:42:40.670Z,22.40
2018-05-27T13:45:08.112Z,22.40
2018-05-27T13:47:35.566Z,22.30
2018-05-27T13:50:03.028Z,22.40
2018-05-27T13:52:30.480Z,22.40
2018-05-27T13:54:57.939Z,22.40
2018-05-27T13:57:25.384Z,22.40
2018-05-27T13:59:52.845Z,22.40
2018-05-27T14:02:20.288Z,22.30
2018-05-27T14:04:47.810Z,22.20
2018-05-27T14:07:15.205Z,22.20
2018-05-27T14:09:42.675Z,22.20
2018-05-27T14:12:10.122Z,22.20
2018-05-27T14:14:37.557Z,22.10
2018-05-27T14:17:05.021Z,22.20
2018-05-27T14:19:32.464Z,22.10
2018-05-27T14:22:00.680Z,22.20
2018-05-27T14:24:31.481Z,22.20
2018-05-27T14:26:59.699Z,22.20
2018-05-27T14:29:27.137Z,22.20
2018-05-27T14:31:54.572Z,22.30
2018-05-27T14:34:22.024Z,22.30
2018-05-27T14:36:50.700Z,22.40
2018-05-27T14:39:18.933Z,22.50
2018-05-27T14:41:46.367Z,22.50
2018-05-27T14:44:13.840Z,22.70
2018-05-27T14:46:42.056Z,23.10
2018-05-27T14:49:10.299Z,23.40
2018-05-27T14:51:37.772Z,23.30
2018-05-27T14:54:05.213Z,23.70
2018-05-27T14:56:32.668Z,24.00
2018-05-27T14:59:01.493Z,24.30
2018-05-27T15:01:29.700Z,24.50
2018-05-27T15:03:57.153Z,24.40
2018-05-27T15:06:24.628Z,24.70
2018-05-27T15:08:52.071Z,24.80
2018-05-27T15:11:19.520Z,24.90
2018-05-27T15:13:46.984Z,25.00
2018-05-27T15:16:14.420Z,25.00
2018-05-27T15:18:42.697Z,25.10
2018-05-27T15:21:11.424Z,25.30
2018-05-27T15:23:38.865Z,25.20
2018-05-27T15:26:06.337Z,25.50
2018-05-27T15:28:33.797Z,25.80
2018-05-27T15:31:01.224Z,25.80
2018-05-27T15:33:28.700Z,26.00
2018-05-27T15:35:56.149Z,26.20
2018-05-27T15:38:23.604Z,26.40
2018-05-27T15:40:51.080Z,26.50
2018-05-27T15:43:18.529Z,26.50
2018-05-27T15:45:45.990Z,26.70
2018-05-27T15:48:13.482Z,26.60
2018-05-27T15:50:40.923Z,26.50
2018-05-27T15:53:08.395Z,26.50
2018-05-27T15:55:35.836Z,26.50
2018-05-27T15:58:03.319Z,26.40
2018-05-27T16:00:32.299Z,26.00
2018-05-27T16:02:59.752Z,26.00
2018-05-27T16:05:27.225Z,26.00
2018-05-27T16:07:54.664Z,25.80
2018-05-27T16:10:22.109Z,25.70
2018-05-27T16:12:49.564Z,25.40
2018-05-27T16:15:17.010Z,25.20
2018-05-27T16:17:44.485Z,25.10
2018-05-27T16:20:11.928Z,25.00
2018-05-27T16:22:39.369Z,24.90
2018-05-27T16:25:06.825Z,24.80
2018-05-27T16:27:34.268Z,24.70
2018-05-27T16:30:02.492Z,24.50
2018-05-27T16:32:29.959Z,24.50
2018-05-27T16:34:57.401Z,24.40
2018-05-27T16:37:24.851Z,24.30
2018-05-27T16:39:52.303Z,24.30
2018-05-27T16:42:20.516Z,24.30
2018-05-27T16:44:47.996Z,24.30
2018-05-27T16:47:18.304Z,24.40
2018-05-27T16:49:47.692Z,24.40
2018-05-27T16:52:15.145Z,24.40
2018-05-27T16:54:42.613Z,24.40
2018-05-27T16:57:10.088Z,24.50
2018-05-27T16:59:38.291Z,24.70
2018-05-27T17:02:05.737Z,24.80
2018-05-27T17:04:33.967Z,25.20
2018-05-27T17:07:20.652Z,25.20
2018-05-27T17:09:56.169Z,25.40
2018-05-27T17:12:24.407Z,25.80
2018-05-27T17:14:51.852Z,25.80
2018-05-27T17:17:19.308Z,26.00
2018-05-27T17:19:46.747Z,26.20
2018-05-27T17:22:14.203Z,26.70
2018-05-27T17:24:41.633Z,27.30
2018-05-27T17:27:09.884Z,28.80
2018-05-27T17:29:38.828Z,29.20
2018-05-27T17:32:06.299Z,29.20
2018-05-27T17:34:33.717Z,29.60
2018-05-27T17:37:01.196Z,30.20
2018-05-27T17:39:28.644Z,29.70
2018-05-27T17:41:56.117Z,28.90
2018-05-27T17:44:23.568Z,28.00
2018-05-27T17:46:51.020Z,27.10
2018-05-27T17:49:18.477Z,26.40
2018-05-27T17:51:45.941Z,26.10
2018-05-27T17:54:13.444Z,25.80
2018-05-27T17:56:40.845Z,25.50
2018-05-27T17:59:08.321Z,25.20
2018-05-27T18:01:35.770Z,25.00
2018-05-27T18:04:03.204Z,24.80
2018-05-27T18:06:30.684Z,24.60
2018-05-27T18:08:58.137Z,24.50
2018-05-27T18:11:25.594Z,24.40
2018-05-27T18:13:53.053Z,24.30
2018-05-27T18:16:20.519Z,24.10
2018-05-27T18:18:47.960Z,23.90
2018-05-27T18:21:15.429Z,23.90
2018-05-27T18:23:42.920Z,23.80
2018-05-27T18:26:10.356Z,23.70
2018-05-27T18:28:37.802Z,23.60
2018-05-27T18:31:05.273Z,23.50
2018-05-27T18:33:32.714Z,23.50
2018-05-27T18:36:00.172Z,23.30
2018-05-27T18:38:27.600Z,23.20
2018-05-27T18:40:55.845Z,22.80
2018-05-27T18:43:23.312Z,22.80
2018-05-27T18:45:50.750Z,22.70
2018-05-27T18:48:18.201Z,22.70
2018-05-27T18:50:45.646Z,22.60
2018-05-27T18:53:13.116Z,22.50
2018-05-27T18:55:40.572Z,22.50
2018-05-27T18:58:08.000Z,22.40
2018-05-27T19:00:35.460Z,22.30
2018-05-27T19:03:02.904Z,22.20
2018-05-27T19:05:30.336Z,22.20
2018-05-27T19:07:58.560Z,22.00
2018-05-27T19:10:26.016Z,22.00
2018-05-27T19:12:53.462Z,21.90
2018-05-27T19:15:20.932Z,21.80
2018-05-27T19:17:48.360Z,21.80
2018-05-27T19:20:15.868Z,21.60
2018-05-27T19:22:43.309Z,21.60
2018-05-27T19:25:10.788Z,21.50
2018-05-27T19:27:38.234Z,21.40
2018-05-27T19:30:05.690Z,21.30
2018-05-27T19:32:33.163Z,21.10
2018-05-27T19:35:00.601Z,21.00
2018-05-27T19:37:28.058Z,20.80
2018-05-27T19:39:55.483Z,20.80
2018-05-27T19:42:23.008Z,20.70
2018-05-27T19:44:50.384Z,20.70
2018-05-27T19:47:17.853Z,20.60
2018-05-27T19:49:45.321Z,20.60
2018-05-27T19:52:12.751Z,20.60
2018-05-27T19:54:41.019Z,20.60
2018-05-27T19:57:08.425Z,20.60
2018-05-27T19:59:35.893Z,20.60
2018-05-27T20:02:03.336Z,20.50
2018-05-27T20:04:30.809Z,20.60
2018-05-27T20:06:58.323Z,20.70
2018-05-27T20:09:26.553Z,20.70
2018-05-27T20:11:53.986Z,20.70
2018-05-27T20:14:21.436Z,20.80
2018-05-27T20:16:48.991Z,20.80
2018-05-27T20:19:16.453Z,20.80
2018-05-27T20:21:43.924Z,20.80
2018-05-27T20:24:11.361Z,20.70
2018-05-27T20:26:38.792Z,20.70
2018-05-27T20:29:07.021Z,20.80
2018-05-27T20:31:34.480Z,20.70
2018-05-27T20:34:01.941Z,20.70
2018-05-27T20:36:30.355Z,20.80
2018-05-27T20:38:58.567Z,20.70
2018-05-27T20:41:26.024Z,20.70
2018-05-27T20:43:53.617Z,20.70
2018-05-27T20:46:21.118Z,20.70
2018-05-27T20:48:49.305Z,20.60
2018-05-27T20:51:16.763Z,20.60
2018-05-27T20:53:44.204Z,20.60
2018-05-27T20:56:13.418Z,20.60
2018-05-27T20:58:40.881Z,20.60
2018-05-27T21:01:08.319Z,20.60
2018-05-27T21:03:35.777Z,20.60
2018-05-27T21:06:03.293Z,20.60
2018-05-27T21:08:30.780Z,20.60
2018-05-27T21:10:59.029Z,20.60
2018-05-27T21:13:26.472Z,20.60
2018-05-27T21:15:53.926Z,20.50
2018-05-27T21:18:22.485Z,20.50
2018-05-27T21:20:49.955Z,20.50
2018-05-27T21:23:17.411Z,20.50
2018-05-27T21:25:44.880Z,20.40
2018-05-27T21:28:12.324Z,20.40
2018-05-27T21:30:39.765Z,20.30
2018-05-27T21:33:07.228Z,20.30
2018-05-27T21:35:34.692Z,20.20
2018-05-27T21:38:02.148Z,20.20
2018-05-27T21:40:29.592Z,20.30
2018-05-27T21:42:57.053Z,20.20
2018-05-27T21:45:24.475Z,20.20
2018-05-27T21:47:52.701Z,20.10
2018-05-27T21:50:20.138Z,20.10
2018-05-27T21:52:47.602Z,20.10
2018-05-27T21:55:15.053Z,20.10
2018-05-27T21:57:42.494Z,20.10
2018-05-27T22:00:10.716Z,20.00
2018-05-27T22:02:38.168Z,20.00
2018-05-27T22:05:05.625Z,20.00
2018-05-27T22:07:33.056Z,19.90
2018-05-27T22:10:00.510Z,19.70
2018-05-27T22:12:27.964Z,19.70
2018-05-27T22:14:55.440Z,19.70
2018-05-27T22:17:22.889Z,19.60
2018-05-27T22:19:50.350Z,19.60
2018-05-27T22:22:17.779Z,19.60
2018-05-27T22:24:45.979Z,19.50
2018-05-27T22:27:13.457Z,19.50
2018-05-27T22:29:40.898Z,19.60
2018-05-27T22:32:08.345Z,19.60
2018-05-27T22:34:35.804Z,19.50
2018-05-27T22:37:03.270Z,19.50
2018-05-27T22:39:30.723Z,19.50
2018-05-27T22:41:58.191Z,19.40
2018-05-27T22:44:25.652Z,19.40
2018-05-27T22:46:53.104Z,19.40
2018-05-27T22:49:20.552Z,19.40
2018-05-27T22:51:48.013Z,19.30
2018-05-27T22:54:15.451Z,19.20
2018-05-27T22:56:43.665Z,19.10
2018-05-27T22:59:11.176Z,19.10
2018-05-27T23:01:39.386Z,19.10
2018-05-27T23:04:06.843Z,19.00
2018-05-27T23:06:34.300Z,19.00
2018-05-27T23:09:01.773Z,19.10
2018-05-27T23:11:29.239Z,19.10
2018-05-27T23:13:56.702Z,19.10
2018-05-27T23:16:24.161Z,19.10
2018-05-27T23:18:51.628Z,19.00
2018-05-27T23:21:21.512Z,18.90
2018-05-27T23:23:48.984Z,18.90
2018-05-27T23:26:16.444Z,19.00
2018-05-27T23:28:43.908Z,18.90
2018-05-27T23:31:11.557Z,18.90
2018-05-27T23:33:39.017Z,18.90
2018-05-27T23:36:06.484Z,18.90
2018-05-27T23:38:33.928Z,18.90
2018-05-27T23:41:01.374Z,18.70
2018-05-27T23:43:28.841Z,18.60
2018-05-27T23:45:56.276Z,18.60
2018-05-27T23:48:23.723Z,18.60
2018-05-27T23:50:51.172Z,18.70
2018-05-27T23:53:18.631Z,18.60
2018-05-27T23:55:46.088Z,18.70
2018-05-27T23:58:13.524Z,18.60
